createdAt,value
2023-05-18T00:00:39.336Z,3.23
2023-05-18T00:03:28.354Z,3.77
2023-05-18T00:06:17.683Z,3.10
2023-05-18T00:09:07.573Z,3.20
2023-05-18T00:11:56.706Z,3.20
2023-05-18T00:14:46.728Z,3.50
2023-05-18T00:17:35.655Z,3.00
2023-05-18T00:20:26.678Z,3.40
2023-05-18T00:23:16.492Z,2.90
2023-05-18T00:26:08.298Z,3.27
2023-05-18T00:28:56.978Z,3.17
2023-05-18T00:31:47.616Z,2.50
2023-05-18T00:34:36.695Z,3.10
2023-05-18T00:37:25.546Z,2.93
2023-05-18T00:40:14.663Z,3.07
2023-05-18T00:43:04.309Z,3.60
2023-05-18T00:45:52.962Z,3.03
2023-05-18T00:48:43.206Z,3.00
2023-05-18T00:51:34.261Z,2.90
2023-05-18T00:54:23.100Z,2.50
2023-05-18T00:57:11.800Z,3.33
2023-05-18T01:00:02.608Z,2.80
2023-05-18T01:02:54.296Z,2.83
2023-05-18T01:05:44.710Z,2.67
2023-05-18T01:08:34.831Z,2.90
2023-05-18T01:11:31.323Z,2.80
2023-05-18T01:14:27.504Z,2.77
2023-05-18T01:17:27.441Z,2.80
2023-05-18T01:20:33.672Z,2.67
2023-05-18T01:23:55.005Z,2.97
2023-05-18T01:26:46.839Z,2.53
2023-05-18T01:29:36.738Z,2.47
2023-05-18T01:32:25.724Z,2.60
2023-05-18T01:35:14.547Z,2.67
2023-05-18T01:38:03.395Z,2.33
2023-05-18T01:40:58.659Z,3.00
2023-05-18T01:44:27.425Z,2.60
2023-05-18T01:47:42.612Z,2.77
2023-05-18T01:50:37.996Z,3.03
2023-05-18T01:53:39.388Z,2.70
2023-05-18T01:56:31.553Z,3.00
2023-05-18T01:59:24.165Z,3.40
2023-05-18T02:02:13.858Z,3.43
2023-05-18T02:05:02.923Z,3.23
2023-05-18T02:07:51.639Z,3.23
2023-05-18T02:10:40.318Z,3.20
2023-05-18T02:13:29.729Z,3.40
2023-05-18T02:16:23.780Z,3.30
2023-05-18T02:19:15.434Z,3.37
2023-05-18T02:22:05.993Z,2.90
2023-05-18T02:24:55.020Z,2.87
2023-05-18T02:27:44.830Z,3.03
2023-05-18T02:30:37.025Z,2.90
2023-05-18T02:33:27.073Z,2.73
2023-05-18T02:36:18.889Z,3.20
2023-05-18T02:39:08.185Z,3.53
2023-05-18T02:41:57.360Z,2.97
2023-05-18T02:44:46.340Z,2.40
2023-05-18T02:47:37.952Z,2.93
2023-05-18T02:50:29.295Z,2.93
2023-05-18T02:53:18.338Z,2.50
2023-05-18T02:56:07.567Z,2.63
2023-05-18T02:59:08.673Z,3.20
2023-05-18T03:02:00.304Z,2.57
2023-05-18T03:04:53.968Z,2.63
2023-05-18T03:07:50.767Z,3.07
2023-05-18T03:10:40.966Z,3.30
2023-05-18T03:13:29.784Z,2.60
2023-05-18T03:16:18.797Z,2.93
2023-05-18T03:19:08.691Z,2.90
2023-05-18T03:22:00.632Z,2.60
2023-05-18T03:24:51.418Z,3.00
2023-05-18T03:27:41.592Z,2.90
2023-05-18T03:30:30.512Z,2.73
2023-05-18T03:33:19.358Z,3.00
2023-05-18T03:36:09.021Z,2.93
2023-05-18T03:38:58.008Z,2.70
2023-05-18T03:41:50.310Z,3.30
2023-05-18T03:44:39.427Z,3.47
2023-05-18T03:47:29.935Z,3.07
2023-05-18T03:50:19.353Z,2.83
2023-05-18T03:53:09.554Z,2.83
2023-05-18T03:55:58.983Z,2.73
2023-05-18T03:58:51.343Z,2.73
2023-05-18T04:01:42.534Z,3.17
2023-05-18T04:04:32.064Z,2.80
2023-05-18T04:07:24.343Z,3.13
2023-05-18T04:10:14.716Z,2.70
2023-05-18T04:13:05.292Z,3.13
2023-05-18T04:15:55.390Z,2.83
2023-05-18T04:18:44.736Z,3.00
2023-05-18T04:21:35.563Z,3.00
2023-05-18T04:24:35.630Z,2.80
2023-05-18T04:27:35.501Z,2.77
2023-05-18T04:30:35.602Z,3.03
2023-05-18T04:33:26.299Z,3.23
2023-05-18T04:36:21.352Z,3.47
2023-05-18T04:39:23.536Z,3.23
2023-05-18T04:42:18.586Z,2.70
2023-05-18T04:45:12.865Z,3.13
2023-05-18T04:48:03.033Z,2.83
2023-05-18T04:50:54.443Z,3.20
2023-05-18T04:53:43.854Z,3.03
2023-05-18T04:56:32.805Z,3.37
2023-05-18T04:59:26.261Z,2.70
2023-05-18T05:02:18.112Z,3.20
2023-05-18T05:05:07.562Z,3.00
2023-05-18T05:07:58.938Z,2.50
2023-05-18T05:10:48.797Z,2.57
2023-05-18T05:13:37.502Z,3.03
2023-05-18T05:16:26.838Z,2.90
2023-05-18T05:19:15.695Z,2.90
2023-05-18T05:22:04.478Z,3.13
2023-05-18T05:24:54.851Z,2.80
2023-05-18T05:27:43.600Z,3.10
2023-05-18T05:30:36.429Z,2.87
2023-05-18T05:33:28.532Z,2.83
2023-05-18T05:36:17.502Z,2.60
2023-05-18T05:39:06.812Z,2.93
2023-05-18T05:41:57.411Z,2.63
2023-05-18T05:44:46.488Z,2.80
2023-05-18T05:47:37.272Z,2.60
2023-05-18T05:50:28.669Z,2.87
2023-05-18T05:53:23.404Z,2.80
2023-05-18T05:56:12.447Z,2.60
2023-05-18T05:59:04.421Z,2.70
2023-05-18T06:01:53.332Z,3.40
2023-05-18T06:04:44.620Z,2.80
2023-05-18T06:07:33.338Z,2.70
2023-05-18T06:10:22.627Z,2.67
2023-05-18T06:13:11.533Z,2.90
2023-05-18T06:16:22.650Z,3.00
2023-05-18T06:19:11.573Z,2.37
2023-05-18T06:22:00.940Z,2.77
2023-05-18T06:24:53.279Z,2.37
2023-05-18T06:27:54.536Z,2.77
2023-05-18T06:31:00.108Z,2.53
2023-05-18T06:33:59.734Z,2.80
2023-05-18T06:36:51.505Z,2.87
2023-05-18T06:39:40.625Z,2.50
2023-05-18T06:42:30.667Z,2.70
2023-05-18T06:45:41.586Z,2.70
2023-05-18T06:48:38.984Z,2.27
2023-05-18T06:51:30.355Z,2.77
2023-05-18T06:54:20.050Z,2.63
2023-05-18T06:57:10.560Z,2.80
2023-05-18T07:00:01.678Z,2.73
2023-05-18T07:02:55.422Z,3.10
2023-05-18T07:05:44.082Z,2.70
2023-05-18T07:08:37.246Z,3.23
2023-05-18T07:11:29.552Z,2.53
2023-05-18T07:14:18.750Z,2.70
2023-05-18T07:17:08.665Z,2.87
2023-05-18T07:19:59.775Z,2.40
2023-05-18T07:22:48.596Z,2.80
2023-05-18T07:25:38.905Z,2.70
2023-05-18T07:28:28.383Z,3.17
2023-05-18T07:31:17.407Z,2.20
2023-05-18T07:34:06.381Z,2.60
2023-05-18T07:36:55.442Z,3.10
2023-05-18T07:39:46.114Z,2.97
2023-05-18T07:42:36.631Z,2.80
2023-05-18T07:45:25.357Z,2.83
2023-05-18T07:48:14.126Z,2.73
2023-05-18T07:51:03.383Z,2.87
2023-05-18T07:53:53.330Z,2.67
2023-05-18T07:56:42.175Z,2.50
2023-05-18T07:59:32.557Z,2.57
2023-05-18T08:02:21.790Z,3.17
2023-05-18T08:05:12.277Z,2.90
2023-05-18T08:08:05.118Z,2.50
2023-05-18T08:10:56.416Z,2.60
2023-05-18T08:13:45.654Z,2.63
2023-05-18T08:16:37.897Z,2.90
2023-05-18T08:19:27.014Z,3.00
2023-05-18T08:22:16.347Z,2.90
2023-05-18T08:25:07.430Z,2.80
2023-05-18T08:27:56.634Z,2.83
2023-05-18T08:30:45.606Z,2.83
2023-05-18T08:33:35.719Z,2.90
2023-05-18T08:36:24.493Z,2.63
2023-05-18T08:39:18.237Z,2.80
2023-05-18T08:42:12.115Z,2.43
2023-05-18T08:45:16.616Z,3.20
2023-05-18T08:48:08.630Z,2.80
2023-05-18T08:51:03.044Z,3.20
2023-05-18T08:53:54.708Z,2.70
2023-05-18T08:56:45.349Z,2.87
2023-05-18T08:59:37.807Z,2.47
2023-05-18T09:02:27.863Z,2.80
2023-05-18T09:05:17.951Z,3.07
2023-05-18T09:08:11.397Z,3.03
2023-05-18T09:11:05.058Z,2.80
2023-05-18T09:13:54.127Z,2.80
2023-05-18T09:16:42.894Z,3.10
2023-05-18T09:19:33.899Z,2.60
2023-05-18T09:22:23.026Z,2.73
2023-05-18T09:25:15.383Z,3.00
2023-05-18T09:28:05.398Z,2.60
2023-05-18T09:30:54.498Z,3.00
2023-05-18T09:33:45.697Z,2.60
2023-05-18T09:36:35.163Z,2.70
2023-05-18T09:39:24.188Z,2.50
2023-05-18T09:42:14.434Z,2.67
2023-05-18T09:45:05.114Z,2.77
2023-05-18T09:47:54.752Z,3.37
2023-05-18T09:50:45.314Z,3.30
2023-05-18T09:53:42.378Z,2.50
2023-05-18T09:56:36.288Z,2.70
2023-05-18T09:59:29.403Z,2.80
2023-05-18T10:02:20.439Z,3.50
2023-05-18T10:05:21.384Z,2.93
2023-05-18T10:08:10.266Z,2.70
2023-05-18T10:10:59.115Z,2.53
2023-05-18T10:13:48.147Z,3.00
2023-05-18T10:16:38.742Z,3.00
2023-05-18T10:19:28.244Z,3.13
2023-05-18T10:22:23.224Z,3.20
2023-05-18T10:25:13.434Z,3.30
2023-05-18T10:28:07.346Z,2.87
2023-05-18T10:30:57.640Z,2.20
2023-05-18T10:33:48.117Z,2.80
2023-05-18T10:36:39.386Z,2.60
2023-05-18T10:39:28.385Z,2.53
2023-05-18T10:42:18.506Z,2.77
2023-05-18T10:45:09.186Z,2.67
2023-05-18T10:48:00.464Z,2.77
2023-05-18T10:50:53.638Z,3.00
2023-05-18T10:53:44.030Z,2.70
2023-05-18T10:56:35.956Z,3.10
2023-05-18T10:59:25.257Z,2.93
2023-05-18T11:02:17.878Z,2.73
2023-05-18T11:05:07.472Z,2.40
2023-05-18T11:08:03.455Z,2.77
2023-05-18T11:11:02.915Z,3.33
2023-05-18T11:13:52.667Z,2.70
2023-05-18T11:16:43.604Z,2.40
2023-05-18T11:19:32.852Z,2.80
2023-05-18T11:22:21.569Z,2.37
2023-05-18T11:25:34.055Z,2.13
2023-05-18T11:28:23.933Z,2.70
2023-05-18T11:31:19.539Z,2.23
2023-05-18T11:34:50.279Z,2.50
2023-05-18T11:37:51.833Z,2.93
2023-05-18T11:40:49.330Z,2.70
2023-05-18T11:43:38.243Z,2.47
2023-05-18T11:46:28.105Z,3.07
2023-05-18T11:49:18.589Z,2.80
2023-05-18T11:52:10.265Z,3.03
2023-05-18T11:55:00.061Z,3.27
2023-05-18T11:57:53.710Z,3.20
2023-05-18T12:00:42.513Z,2.37
2023-05-18T12:03:32.847Z,2.30
2023-05-18T12:06:22.486Z,2.40
2023-05-18T12:09:11.330Z,2.60
2023-05-18T12:12:00.044Z,2.27
2023-05-18T12:14:56.733Z,2.60
2023-05-18T12:17:47.403Z,2.47
2023-05-18T12:20:37.044Z,2.63
2023-05-18T12:23:37.778Z,2.00
2023-05-18T12:26:28.592Z,2.87
2023-05-18T12:29:20.139Z,2.27
2023-05-18T12:32:12.665Z,2.50
2023-05-18T12:35:01.811Z,1.80
2023-05-18T12:37:50.513Z,2.13
2023-05-18T12:40:44.944Z,2.67
2023-05-18T12:43:35.782Z,2.20
2023-05-18T12:46:24.998Z,2.63
2023-05-18T12:49:15.358Z,2.30
2023-05-18T12:52:10.529Z,2.50
2023-05-18T12:55:00.611Z,2.30
2023-05-18T12:58:01.743Z,2.57
2023-05-18T13:00:50.643Z,2.50
2023-05-18T13:03:44.425Z,2.10
2023-05-18T13:06:39.482Z,2.30
2023-05-18T13:09:28.597Z,2.53
2023-05-18T13:12:17.406Z,2.13
2023-05-18T13:15:14.065Z,2.40
2023-05-18T13:18:04.789Z,1.97
2023-05-18T13:20:55.378Z,1.97
2023-05-18T13:23:45.609Z,2.20
2023-05-18T13:26:34.588Z,2.23
2023-05-18T13:29:23.762Z,2.23
2023-05-18T13:32:12.657Z,2.07
2023-05-18T13:35:01.515Z,2.60
2023-05-18T13:37:51.416Z,2.30
2023-05-18T13:40:42.575Z,2.50
2023-05-18T13:43:31.396Z,2.43
2023-05-18T13:46:20.324Z,3.00
2023-05-18T13:49:09.163Z,2.30
2023-05-18T13:51:59.268Z,1.93
2023-05-18T13:54:48.903Z,2.30
2023-05-18T13:57:39.088Z,2.90
2023-05-18T14:00:28.210Z,2.37
2023-05-18T14:03:19.046Z,2.63
2023-05-18T14:06:08.309Z,2.13
2023-05-18T14:08:57.129Z,2.63
2023-05-18T14:11:46.160Z,2.63
2023-05-18T14:14:36.575Z,2.67
2023-05-18T14:17:25.470Z,2.60
2023-05-18T14:20:14.605Z,2.30
2023-05-18T14:23:05.217Z,1.87
2023-05-18T14:25:54.825Z,2.37
2023-05-18T14:28:43.549Z,2.23
2023-05-18T14:31:35.536Z,2.43
2023-05-18T14:34:24.395Z,2.63
2023-05-18T14:37:13.218Z,2.30
2023-05-18T14:40:02.791Z,2.60
2023-05-18T14:42:53.683Z,2.17
2023-05-18T14:45:43.613Z,2.70
2023-05-18T14:48:36.632Z,2.37
2023-05-18T14:51:25.377Z,1.97
2023-05-18T14:54:14.552Z,1.90
2023-05-18T14:57:03.449Z,2.43
2023-05-18T14:59:52.207Z,1.93
2023-05-18T15:02:41.159Z,2.57
2023-05-18T15:05:31.486Z,2.70
2023-05-18T15:08:20.314Z,2.53
2023-05-18T15:11:09.067Z,2.37
2023-05-18T15:13:57.786Z,2.20
2023-05-18T15:16:46.890Z,2.40
2023-05-18T15:19:36.118Z,2.07
2023-05-18T15:22:26.330Z,2.40
2023-05-18T15:25:15.153Z,2.20
2023-05-18T15:28:04.016Z,2.47
2023-05-18T15:30:54.457Z,2.30
2023-05-18T15:33:43.919Z,2.17
2023-05-18T15:36:34.064Z,2.37
2023-05-18T15:39:25.834Z,2.50
2023-05-18T15:42:16.478Z,2.40
2023-05-18T15:45:06.422Z,2.50
2023-05-18T15:47:55.304Z,2.23
2023-05-18T15:50:44.205Z,2.00
2023-05-18T15:53:33.756Z,2.30
2023-05-18T15:56:24.218Z,2.20
2023-05-18T15:59:13.011Z,2.20
2023-05-18T16:02:01.756Z,2.27
2023-05-18T16:04:53.386Z,2.13
2023-05-18T16:07:42.339Z,2.00
2023-05-18T16:10:31.403Z,2.40
2023-05-18T16:13:25.767Z,2.10
2023-05-18T16:16:16.727Z,1.70
2023-05-18T16:19:07.235Z,1.80
2023-05-18T16:21:56.939Z,2.00
2023-05-18T16:24:45.600Z,2.20
2023-05-18T16:27:34.399Z,1.93
2023-05-18T16:30:24.961Z,2.17
2023-05-18T16:33:13.804Z,2.53
2023-05-18T16:36:02.552Z,2.13
2023-05-18T16:38:51.256Z,2.37
2023-05-18T16:41:40.188Z,2.50
2023-05-18T16:44:28.761Z,2.10
2023-05-18T16:47:20.154Z,2.27
2023-05-18T16:50:09.978Z,2.10
2023-05-18T16:52:58.734Z,2.13
2023-05-18T16:55:47.421Z,2.30
2023-05-18T16:58:36.034Z,1.63
2023-05-18T17:01:28.817Z,2.10
2023-05-18T17:04:19.357Z,2.00
2023-05-18T17:07:09.756Z,1.90
2023-05-18T17:09:59.047Z,2.17
2023-05-18T17:12:47.772Z,1.90
2023-05-18T17:15:36.896Z,2.70
2023-05-18T17:18:25.605Z,2.30
2023-05-18T17:21:15.712Z,2.27
2023-05-18T17:24:04.552Z,1.90
2023-05-18T17:26:54.269Z,2.10
2023-05-18T17:29:42.955Z,2.07
2023-05-18T17:32:34.798Z,2.00
2023-05-18T17:35:23.571Z,2.47
2023-05-18T17:38:17.060Z,1.80
2023-05-18T17:41:06.131Z,2.40
2023-05-18T17:43:55.016Z,2.20
2023-05-18T17:46:44.747Z,2.43
2023-05-18T17:49:33.615Z,2.80
2023-05-18T17:52:22.267Z,2.57
2023-05-18T17:55:13.034Z,2.37
2023-05-18T17:58:02.518Z,2.30
2023-05-18T18:00:51.407Z,2.27
2023-05-18T18:03:40.180Z,2.30
2023-05-18T18:06:29.018Z,2.20
2023-05-18T18:09:17.773Z,2.43
2023-05-18T18:12:08.580Z,2.47
2023-05-18T18:14:58.061Z,2.80
2023-05-18T18:17:46.840Z,2.80
2023-05-18T18:20:37.052Z,2.60
2023-05-18T18:23:25.689Z,2.00
2023-05-18T18:26:14.435Z,2.70
2023-05-18T18:29:04.551Z,2.30
2023-05-18T18:31:53.284Z,2.33
2023-05-18T18:34:42.036Z,2.23
2023-05-18T18:37:30.821Z,2.90
2023-05-18T18:40:19.973Z,2.57
2023-05-18T18:43:09.042Z,2.23
2023-05-18T18:45:59.723Z,2.00
2023-05-18T18:48:48.686Z,2.07
2023-05-18T18:51:37.988Z,2.00
2023-05-18T18:54:27.590Z,2.10
2023-05-18T18:57:18.074Z,2.27
2023-05-18T19:00:11.076Z,2.20
2023-05-18T19:03:01.271Z,2.10
2023-05-18T19:05:50.988Z,2.47
2023-05-18T19:08:39.685Z,2.40
2023-05-18T19:11:28.472Z,2.20
2023-05-18T19:14:17.201Z,2.27
2023-05-18T19:17:07.106Z,2.40
2023-05-18T19:19:57.271Z,2.20
2023-05-18T19:22:46.016Z,2.07
2023-05-18T19:25:34.832Z,2.13
2023-05-18T19:28:23.521Z,2.07
2023-05-18T19:31:12.235Z,2.00
2023-05-18T19:34:01.130Z,2.87
2023-05-18T19:36:51.869Z,2.17
2023-05-18T19:39:40.671Z,2.43
2023-05-18T19:42:29.500Z,2.40
2023-05-18T19:45:18.344Z,2.70
2023-05-18T19:48:07.382Z,2.43
2023-05-18T19:50:56.639Z,2.50
2023-05-18T19:53:47.101Z,2.87
2023-05-18T19:56:37.230Z,2.80
2023-05-18T19:59:26.074Z,2.20
2023-05-18T20:02:14.789Z,2.10
2023-05-18T20:05:04.004Z,2.83
2023-05-18T20:07:52.971Z,2.27
2023-05-18T20:10:44.455Z,2.40
2023-05-18T20:13:33.248Z,2.77
2023-05-18T20:16:23.278Z,2.63
2023-05-18T20:19:14.033Z,2.57
2023-05-18T20:22:03.033Z,2.57
2023-05-18T20:24:51.719Z,2.23
2023-05-18T20:27:41.859Z,2.53
2023-05-18T20:30:30.896Z,2.57
2023-05-18T20:33:20.490Z,2.57
2023-05-18T20:36:09.569Z,2.50
2023-05-18T20:38:59.381Z,2.93
2023-05-18T20:41:50.496Z,3.00
2023-05-18T20:44:40.689Z,2.50
2023-05-18T20:47:31.800Z,2.77
2023-05-18T20:50:20.967Z,2.70
2023-05-18T20:53:09.791Z,3.00
2023-05-18T20:56:01.143Z,2.40
2023-05-18T20:58:50.466Z,2.67
2023-05-18T21:01:41.092Z,2.37
2023-05-18T21:04:30.755Z,2.50
2023-05-18T21:07:21.251Z,2.77
2023-05-18T21:10:11.312Z,2.50
2023-05-18T21:13:00.626Z,2.70
2023-05-18T21:15:49.574Z,2.47
2023-05-18T21:18:40.092Z,2.53
2023-05-18T21:21:28.834Z,3.00
2023-05-18T21:24:17.614Z,2.80
2023-05-18T21:27:06.852Z,2.60
2023-05-18T21:29:56.051Z,3.00
2023-05-18T21:32:44.841Z,2.67
2023-05-18T21:35:35.010Z,2.67
2023-05-18T21:38:26.326Z,2.17
2023-05-18T21:41:15.078Z,2.83
2023-05-18T21:44:03.808Z,2.60
2023-05-18T21:46:55.345Z,2.40
2023-05-18T21:49:44.976Z,2.50
2023-05-18T21:52:35.849Z,2.70
2023-05-18T21:55:26.396Z,2.70
2023-05-18T21:58:15.373Z,2.90
2023-05-18T22:01:04.187Z,3.20
2023-05-18T22:03:53.007Z,2.40
2023-05-18T22:06:42.015Z,2.60
2023-05-18T22:09:33.565Z,2.17
2023-05-18T22:12:23.563Z,1.90
2023-05-18T22:15:12.872Z,2.40
2023-05-18T22:18:02.474Z,2.17
2023-05-18T22:20:51.202Z,1.87
2023-05-18T22:23:39.849Z,2.10
2023-05-18T22:26:29.899Z,2.57
2023-05-18T22:29:18.739Z,2.77
2023-05-18T22:32:08.746Z,2.13
2023-05-18T22:34:57.828Z,2.40
2023-05-18T22:37:47.113Z,2.53
2023-05-18T22:40:35.916Z,2.60
2023-05-18T22:43:27.221Z,2.67
2023-05-18T22:46:16.093Z,2.30
2023-05-18T22:49:08.160Z,2.20
2023-05-18T22:51:56.884Z,2.53
2023-05-18T22:54:45.786Z,2.60
2023-05-18T22:57:34.506Z,2.03
2023-05-18T23:00:27.292Z,2.67
2023-05-18T23:03:17.565Z,2.50
2023-05-18T23:06:07.576Z,2.33
2023-05-18T23:08:56.614Z,2.13
2023-05-18T23:11:48.391Z,2.20
2023-05-18T23:14:38.032Z,2.13
2023-05-18T23:17:28.593Z,1.93
2023-05-18T23:20:18.207Z,2.20
2023-05-18T23:23:07.153Z,2.07
2023-05-18T23:25:56.317Z,2.03
2023-05-18T23:28:45.022Z,2.40
2023-05-18T23:31:33.753Z,2.20
2023-05-18T23:34:24.648Z,2.10
2023-05-18T23:37:13.736Z,2.30
2023-05-18T23:40:03.928Z,2.23
2023-05-18T23:42:53.371Z,1.97
2023-05-18T23:45:42.684Z,2.10
2023-05-18T23:48:32.566Z,2.30
2023-05-18T23:51:23.277Z,2.07
2023-05-18T23:54:13.182Z,2.20
2023-05-18T23:57:03.241Z,2.10
2023-05-18T23:59:52.330Z,1.67
